createdAt,value
2022-12-03T00:01:20.383Z,23.35
2022-12-03T00:03:48.277Z,17.45
2022-12-03T00:06:16.289Z,18.48
2022-12-03T00:08:44.115Z,17.55
2022-12-03T00:11:11.945Z,17.15
2022-12-03T00:13:39.881Z,19.15
2022-12-03T00:16:09.251Z,18.67
2022-12-03T00:18:37.129Z,14.02
2022-12-03T00:21:05.121Z,19.88
2022-12-03T00:23:35.970Z,13.65
2022-12-03T00:26:08.137Z,23.95
2022-12-03T00:28:35.929Z,19.48
2022-12-03T00:31:03.850Z,17.90
2022-12-03T00:33:33.090Z,17.83
2022-12-03T00:36:01.146Z,17.23
2022-12-03T00:38:28.965Z,19.15
2022-12-03T00:40:56.880Z,19.02
2022-12-03T00:43:24.714Z,18.02
2022-12-03T00:45:53.052Z,15.50
2022-12-03T00:48:20.939Z,18.05
2022-12-03T00:50:50.128Z,19.10
2022-12-03T00:53:18.588Z,25.00
2022-12-03T00:55:46.426Z,18.67
2022-12-03T00:58:14.235Z,17.63
2022-12-03T01:00:42.092Z,20.13
2022-12-03T01:03:09.898Z,19.65
2022-12-03T01:05:37.816Z,18.08
2022-12-03T01:08:07.214Z,18.73
2022-12-03T01:10:35.167Z,18.70
2022-12-03T01:13:03.024Z,19.13
2022-12-03T01:15:30.917Z,21.58
2022-12-03T01:17:58.771Z,22.70
2022-12-03T01:20:26.603Z,24.65
2022-12-03T01:22:54.802Z,21.48
2022-12-03T01:25:24.048Z,17.38
2022-12-03T01:27:51.896Z,18.92
2022-12-03T01:30:19.891Z,27.20
2022-12-03T01:32:46.702Z,19.85
2022-12-03T01:35:14.533Z,18.00
2022-12-03T01:37:42.319Z,20.58
2022-12-03T01:40:13.707Z,23.45
2022-12-03T01:42:43.417Z,19.60
2022-12-03T01:45:13.063Z,20.88
2022-12-03T01:47:41.302Z,18.38
2022-12-03T01:50:15.305Z,18.27
2022-12-03T01:52:43.375Z,18.20
2022-12-03T01:55:15.521Z,21.33
2022-12-03T01:57:47.163Z,22.38
2022-12-03T02:00:16.447Z,22.08
2022-12-03T02:02:45.347Z,18.02
2022-12-03T02:05:18.853Z,21.35
2022-12-03T02:07:47.117Z,21.50
2022-12-03T02:10:16.804Z,19.30
2022-12-03T02:12:50.318Z,23.20
2022-12-03T02:15:18.304Z,20.35
2022-12-03T02:17:46.218Z,25.40
2022-12-03T02:20:15.565Z,16.13
2022-12-03T02:22:48.550Z,22.58
2022-12-03T02:27:46.875Z,17.70
2022-12-03T02:30:17.514Z,23.63
2022-12-03T02:32:45.566Z,11.25
2022-12-03T02:35:17.558Z,21.23
2022-12-03T02:37:46.563Z,20.43
2022-12-03T02:40:18.969Z,16.88
2022-12-03T02:42:47.161Z,20.17
2022-12-03T02:45:17.462Z,19.55
2022-12-03T02:47:46.735Z,20.30
2022-12-03T02:50:17.462Z,18.13
2022-12-03T02:52:46.388Z,21.20
2022-12-03T02:55:15.649Z,17.25
2022-12-03T02:57:46.334Z,14.68
2022-12-03T03:00:15.978Z,19.55
2022-12-03T03:02:44.564Z,19.70
2022-12-03T03:05:13.325Z,20.60
2022-12-03T03:07:41.907Z,19.80
2022-12-03T03:10:13.086Z,20.00
2022-12-03T03:12:41.197Z,19.88
2022-12-03T03:15:11.581Z,21.02
2022-12-03T03:17:39.769Z,22.67
2022-12-03T03:20:10.081Z,21.73
2022-12-03T03:22:39.944Z,20.33
2022-12-03T03:25:09.860Z,18.95
2022-12-03T03:27:38.246Z,20.23
2022-12-03T03:30:08.070Z,18.88
2022-12-03T03:32:39.657Z,20.92
2022-12-03T03:35:08.228Z,20.30
2022-12-03T03:37:36.154Z,20.23
2022-12-03T03:40:04.670Z,20.65
2022-12-03T03:42:32.678Z,18.00
2022-12-03T03:45:00.669Z,21.52
2022-12-03T03:47:28.802Z,18.92
2022-12-03T03:49:58.044Z,19.45
2022-12-03T03:52:25.967Z,23.67
2022-12-03T03:54:54.115Z,21.75
2022-12-03T03:57:22.134Z,20.92
2022-12-03T03:59:49.933Z,21.20
2022-12-03T04:02:20.589Z,25.63
2022-12-03T04:04:49.233Z,25.38
2022-12-03T04:07:18.861Z,23.02
2022-12-03T04:09:46.736Z,20.63
2022-12-03T04:12:32.141Z,24.20
2022-12-03T04:15:00.425Z,22.75
2022-12-03T04:17:28.277Z,19.95
2022-12-03T04:19:56.193Z,21.80
2022-12-03T04:22:39.893Z,20.42
2022-12-03T04:25:26.910Z,20.80
2022-12-03T04:28:21.188Z,21.80
2022-12-03T04:30:49.139Z,20.02
2022-12-03T04:33:34.429Z,20.55
2022-12-03T04:36:02.355Z,19.48
2022-12-03T04:38:31.672Z,23.80
2022-12-03T04:41:03.830Z,21.33
2022-12-03T04:43:33.455Z,26.48
2022-12-03T04:46:02.258Z,21.50
2022-12-03T04:48:30.915Z,18.33
2022-12-03T04:50:58.849Z,22.20
2022-12-03T04:53:26.799Z,22.13
2022-12-03T04:55:56.063Z,19.77
2022-12-03T04:58:23.945Z,19.17
2022-12-03T05:00:52.484Z,20.58
2022-12-03T05:03:20.389Z,21.33
2022-12-03T05:05:48.213Z,20.73
2022-12-03T05:08:16.145Z,23.20
2022-12-03T05:10:44.061Z,20.27
2022-12-03T05:13:13.272Z,25.65
2022-12-03T05:15:41.085Z,16.65
2022-12-03T05:18:08.952Z,20.15
2022-12-03T05:20:45.692Z,20.38
2022-12-03T05:23:17.602Z,21.27
2022-12-03T05:25:45.411Z,21.50
2022-12-03T05:28:14.643Z,22.92
2022-12-03T05:30:42.526Z,21.75
2022-12-03T05:33:10.407Z,19.38
2022-12-03T05:35:38.217Z,20.23
2022-12-03T05:38:06.057Z,18.73
2022-12-03T05:40:33.973Z,22.13
2022-12-03T05:43:01.688Z,22.00
2022-12-03T05:45:32.954Z,17.10
2022-12-03T05:48:02.000Z,21.40
2022-12-03T05:50:31.804Z,18.40
2022-12-03T05:53:00.201Z,19.98
2022-12-03T05:55:28.287Z,20.42
2022-12-03T05:57:56.361Z,19.67
2022-12-03T06:00:25.730Z,16.80
2022-12-03T06:02:55.288Z,20.40
2022-12-03T06:05:23.980Z,21.10
2022-12-03T06:07:53.488Z,20.42
2022-12-03T06:10:23.166Z,18.83
2022-12-03T06:12:51.166Z,22.50
2022-12-03T06:15:19.370Z,19.88
2022-12-03T06:17:47.328Z,18.02
2022-12-03T06:20:18.306Z,18.33
2022-12-03T06:22:46.384Z,25.05
2022-12-03T06:25:15.022Z,23.77
2022-12-03T06:27:43.376Z,22.33
2022-12-03T06:30:13.724Z,20.85
2022-12-03T06:32:41.867Z,22.17
2022-12-03T06:35:10.349Z,20.92
2022-12-03T06:37:39.722Z,21.83
2022-12-03T06:40:09.048Z,18.33
2022-12-03T06:42:37.033Z,19.77
2022-12-03T06:45:05.508Z,18.83
2022-12-03T06:47:33.391Z,18.20
2022-12-03T06:50:01.242Z,19.13
2022-12-03T06:52:29.130Z,22.63
2022-12-03T06:54:58.456Z,18.65
2022-12-03T06:57:26.325Z,23.02
2022-12-03T06:59:54.467Z,24.13
2022-12-03T07:02:22.976Z,22.98
2022-12-03T07:04:51.104Z,24.40
2022-12-03T07:07:19.094Z,24.25
2022-12-03T07:09:46.987Z,20.88
2022-12-03T07:12:16.273Z,20.75
2022-12-03T07:14:44.124Z,23.23
2022-12-03T07:17:12.116Z,20.30
2022-12-03T07:19:40.602Z,23.27
2022-12-03T07:22:08.490Z,23.98
2022-12-03T07:24:36.487Z,22.38
2022-12-03T07:27:04.494Z,25.08
2022-12-03T07:29:33.762Z,16.98
2022-12-03T07:32:01.591Z,19.83
2022-12-03T07:34:29.450Z,20.00
2022-12-03T07:36:57.436Z,24.05
2022-12-03T07:39:25.396Z,24.30
2022-12-03T07:41:53.265Z,15.40
2022-12-03T07:44:21.102Z,22.33
2022-12-03T07:46:50.492Z,21.25
2022-12-03T07:49:18.350Z,20.02
2022-12-03T07:51:53.679Z,22.58
2022-12-03T07:54:21.775Z,22.30
2022-12-03T07:56:49.571Z,23.75
2022-12-03T07:59:17.992Z,20.60
2022-12-03T08:01:45.939Z,24.23
2022-12-03T08:04:18.234Z,23.95
2022-12-03T08:06:46.541Z,21.23
2022-12-03T08:09:16.220Z,15.70
2022-12-03T08:11:45.805Z,22.50
2022-12-03T08:14:14.967Z,20.58
2022-12-03T08:16:44.363Z,25.25
2022-12-03T08:19:13.325Z,21.27
2022-12-03T08:21:42.961Z,22.05
2022-12-03T08:24:15.591Z,20.85
2022-12-03T08:26:44.936Z,17.77
2022-12-03T08:29:14.458Z,18.88
2022-12-03T08:31:42.657Z,18.17
2022-12-03T08:34:18.989Z,24.42
2022-12-03T08:36:49.779Z,23.27
2022-12-03T08:39:33.254Z,16.42
2022-12-03T08:42:27.211Z,22.45
2022-12-03T08:44:56.189Z,24.10
2022-12-03T08:47:25.140Z,20.80
2022-12-03T08:49:55.954Z,21.40
2022-12-03T08:52:32.159Z,24.00
2022-12-03T08:55:00.793Z,21.38
2022-12-03T08:57:30.583Z,20.88
2022-12-03T09:00:01.608Z,16.67
2022-12-03T09:02:33.225Z,19.52
2022-12-03T09:05:12.084Z,21.35
2022-12-03T09:07:41.359Z,19.27
2022-12-03T09:10:10.172Z,20.77
2022-12-03T09:12:38.162Z,20.38
2022-12-03T09:15:06.753Z,19.90
2022-12-03T09:17:34.952Z,22.05
2022-12-03T09:20:03.132Z,17.92
2022-12-03T09:22:31.008Z,16.80
2022-12-03T09:25:00.328Z,21.05
2022-12-03T09:27:28.222Z,18.35
2022-12-03T09:29:56.067Z,20.25
2022-12-03T09:32:24.062Z,21.50
2022-12-03T09:34:52.258Z,19.40
2022-12-03T09:37:21.439Z,17.35
2022-12-03T09:39:49.402Z,14.57
2022-12-03T09:42:18.864Z,18.13
2022-12-03T09:44:46.786Z,19.00
2022-12-03T09:47:14.804Z,21.02
2022-12-03T09:49:42.907Z,22.70
2022-12-03T09:52:23.577Z,19.30
2022-12-03T09:54:53.340Z,21.77
2022-12-03T09:57:22.855Z,22.17
2022-12-03T09:59:50.889Z,20.60
2022-12-03T10:02:22.162Z,18.60
2022-12-03T10:04:50.494Z,25.17
2022-12-03T10:07:18.476Z,17.00
2022-12-03T10:09:46.354Z,25.05
2022-12-03T10:12:15.384Z,19.08
2022-12-03T10:14:44.676Z,20.38
2022-12-03T10:17:13.340Z,20.80
2022-12-03T10:19:42.699Z,25.40
2022-12-03T10:22:10.640Z,19.83
2022-12-03T10:24:39.544Z,23.35
2022-12-03T10:27:22.259Z,24.48
2022-12-03T10:30:02.734Z,25.20
2022-12-03T10:32:41.819Z,23.55
2022-12-03T10:35:12.427Z,27.30
2022-12-03T10:37:57.862Z,26.45
2022-12-03T10:40:27.095Z,19.65
2022-12-03T10:43:13.956Z,25.08
2022-12-03T10:45:43.615Z,22.50
2022-12-03T10:48:14.342Z,21.80
2022-12-03T10:50:50.887Z,22.88
2022-12-03T10:53:19.484Z,23.33
2022-12-03T10:55:48.335Z,22.50
2022-12-03T10:58:21.960Z,21.98
2022-12-03T11:00:52.491Z,23.00
2022-12-03T11:03:25.826Z,23.65
2022-12-03T11:05:55.171Z,21.65
2022-12-03T11:08:24.721Z,24.90
2022-12-03T11:11:00.338Z,24.48
2022-12-03T11:13:38.952Z,20.65
2022-12-03T11:16:08.692Z,23.33
2022-12-03T11:18:59.247Z,26.58
2022-12-03T11:21:27.160Z,21.30
2022-12-03T11:24:28.359Z,24.33
2022-12-03T11:27:18.884Z,22.58
2022-12-03T11:29:57.640Z,21.15
2022-12-03T11:33:08.475Z,23.40
2022-12-03T11:36:02.419Z,24.40
2022-12-03T11:38:52.339Z,23.27
2022-12-03T11:41:22.879Z,26.38
2022-12-03T11:44:19.835Z,25.70
2022-12-03T11:46:48.208Z,25.65
2022-12-03T11:49:39.888Z,22.95
2022-12-03T11:52:24.384Z,22.60
2022-12-03T11:54:55.261Z,28.90
2022-12-03T11:57:27.983Z,19.27
2022-12-03T12:00:05.883Z,21.05
2022-12-03T12:02:39.945Z,23.02
2022-12-03T12:05:22.919Z,21.27
2022-12-03T12:07:52.930Z,22.23
2022-12-03T12:10:41.486Z,22.55
2022-12-03T12:13:27.761Z,20.10
2022-12-03T12:15:56.107Z,20.63
2022-12-03T12:18:38.290Z,17.63
2022-12-03T12:21:41.043Z,25.02
2022-12-03T12:24:38.252Z,18.03
2022-12-03T12:27:07.933Z,19.98
2022-12-03T12:29:37.201Z,20.13
2022-12-03T12:32:15.113Z,23.85
2022-12-03T12:34:44.970Z,21.35
2022-12-03T12:37:15.582Z,18.60
2022-12-03T12:39:45.077Z,23.58
2022-12-03T12:42:28.618Z,21.38
2022-12-03T12:45:00.208Z,20.23
2022-12-03T12:47:31.116Z,21.92
2022-12-03T12:49:59.722Z,15.18
2022-12-03T12:52:28.677Z,15.00
2022-12-03T12:55:03.077Z,18.15
2022-12-03T12:57:33.320Z,16.27
2022-12-03T13:00:01.198Z,14.40
2022-12-03T13:02:40.939Z,21.55
2022-12-03T13:05:14.000Z,20.67
2022-12-03T13:07:44.162Z,21.35
2022-12-03T13:10:41.908Z,18.48
2022-12-03T13:13:24.715Z,16.77
2022-12-03T13:15:58.680Z,11.82
2022-12-03T13:18:29.659Z,18.65
2022-12-03T13:20:57.689Z,16.02
2022-12-03T13:23:32.481Z,15.75
2022-12-03T13:26:22.312Z,19.65
2022-12-03T13:28:52.933Z,22.38
2022-12-03T13:31:26.837Z,17.13
2022-12-03T13:33:56.933Z,15.27
2022-12-03T13:36:31.442Z,21.75
2022-12-03T13:38:59.822Z,15.27
2022-12-03T13:42:01.341Z,22.48
2022-12-03T13:44:31.556Z,19.38
2022-12-03T13:47:02.007Z,22.67
2022-12-03T13:49:30.374Z,26.63
2022-12-03T13:51:58.208Z,19.63
2022-12-03T13:54:28.190Z,26.17
2022-12-03T13:56:57.886Z,23.45
2022-12-03T13:59:26.489Z,23.77
2022-12-03T14:01:54.526Z,25.23
2022-12-03T14:04:22.407Z,27.92
2022-12-03T14:06:50.359Z,21.13
2022-12-03T14:09:18.401Z,25.70
2022-12-03T14:12:03.749Z,22.15
2022-12-03T14:14:33.048Z,28.02
2022-12-03T14:17:01.015Z,22.70
2022-12-03T14:19:29.030Z,28.70
2022-12-03T14:21:57.060Z,24.80
2022-12-03T14:24:25.107Z,23.73
2022-12-03T14:26:53.006Z,22.27
2022-12-03T14:29:21.029Z,25.98
2022-12-03T14:31:50.248Z,28.70
2022-12-03T14:34:18.199Z,26.52
2022-12-03T14:36:46.064Z,23.00
2022-12-03T14:39:13.948Z,29.58
2022-12-03T14:42:07.666Z,26.10
2022-12-03T14:44:35.732Z,31.25
2022-12-03T14:47:05.088Z,31.20
2022-12-03T14:49:33.005Z,32.03
2022-12-03T14:52:00.904Z,30.35
2022-12-03T14:54:28.827Z,32.38
2022-12-03T14:56:56.701Z,29.05
2022-12-03T14:59:27.827Z,25.83
2022-12-03T15:01:56.416Z,37.50
2022-12-03T15:04:25.989Z,25.98
2022-12-03T15:06:53.873Z,32.22
2022-12-03T15:09:21.895Z,38.65
2022-12-03T15:11:50.014Z,34.40
2022-12-03T15:14:18.031Z,38.35
2022-12-03T15:16:46.126Z,37.00
2022-12-03T15:19:15.562Z,33.97
2022-12-03T15:21:45.281Z,34.85
2022-12-03T15:24:13.344Z,45.92
2022-12-03T15:26:41.219Z,37.47
2022-12-03T15:29:09.278Z,56.95
2022-12-03T15:31:37.282Z,37.10
2022-12-03T15:34:05.181Z,42.70
2022-12-03T15:36:33.069Z,48.13
2022-12-03T15:39:02.393Z,48.17
2022-12-03T15:41:30.754Z,49.03
2022-12-03T15:43:59.990Z,53.33
2022-12-03T15:46:28.430Z,44.55
2022-12-03T15:48:56.567Z,57.47
2022-12-03T15:54:08.605Z,38.25
2022-12-03T15:56:37.683Z,47.38
2022-12-03T15:59:05.669Z,47.83
2022-12-03T16:01:33.766Z,47.92
2022-12-03T16:04:01.769Z,42.35
2022-12-03T16:06:29.588Z,47.45
2022-12-03T16:08:57.421Z,35.92
2022-12-03T16:11:26.679Z,37.25
2022-12-03T16:13:54.647Z,41.53
2022-12-03T16:16:22.623Z,38.35
2022-12-03T16:18:50.520Z,37.72
2022-12-03T16:21:22.046Z,40.58
2022-12-03T16:23:54.318Z,38.42
2022-12-03T16:26:22.189Z,35.33
2022-12-03T16:28:51.420Z,36.25
2022-12-03T16:31:19.993Z,37.00
2022-12-03T16:33:48.371Z,39.63
2022-12-03T16:36:16.276Z,44.65
2022-12-03T16:38:44.168Z,44.08
2022-12-03T16:41:12.028Z,41.65
2022-12-03T16:43:39.907Z,36.88
2022-12-03T16:46:25.542Z,41.33
2022-12-03T16:48:55.203Z,42.65
2022-12-03T16:51:23.138Z,29.23
2022-12-03T16:53:50.981Z,43.53
2022-12-03T16:56:18.880Z,45.80
2022-12-03T16:58:46.707Z,36.33
2022-12-03T17:01:15.973Z,40.35
2022-12-03T17:03:43.820Z,43.05
2022-12-03T17:06:11.661Z,42.08
2022-12-03T17:08:41.063Z,37.25
2022-12-03T17:11:12.498Z,38.08
2022-12-03T17:13:40.450Z,32.13
2022-12-03T17:16:08.457Z,39.90
2022-12-03T17:18:38.078Z,40.03
2022-12-03T17:21:06.968Z,32.13
2022-12-03T17:23:34.841Z,35.47
2022-12-03T17:26:02.696Z,35.78
2022-12-03T17:28:30.625Z,24.58
2022-12-03T17:30:58.644Z,26.83
2022-12-03T17:33:26.538Z,36.20
2022-12-03T17:35:55.687Z,40.88
2022-12-03T17:38:23.611Z,33.40
2022-12-03T17:40:51.464Z,38.15
2022-12-03T17:43:19.303Z,33.13
2022-12-03T17:45:47.172Z,34.75
2022-12-03T17:48:15.015Z,32.08
2022-12-03T17:50:42.985Z,34.05
2022-12-03T17:53:12.239Z,32.85
2022-12-03T17:55:44.736Z,36.90
2022-12-03T17:58:13.561Z,38.38
2022-12-03T18:00:41.681Z,34.95
2022-12-03T18:03:09.729Z,35.13
2022-12-03T18:05:37.611Z,48.17
2022-12-03T18:08:06.025Z,32.65
2022-12-03T18:10:35.257Z,42.80
2022-12-03T18:13:03.181Z,42.42
2022-12-03T18:15:31.258Z,41.30
2022-12-03T18:17:59.173Z,29.15
2022-12-03T18:20:27.093Z,39.45
2022-12-03T18:22:55.018Z,44.58
2022-12-03T18:25:22.965Z,41.53
2022-12-03T18:27:52.240Z,37.28
2022-12-03T18:30:20.286Z,43.58
2022-12-03T18:32:48.824Z,43.42
2022-12-03T18:35:16.893Z,43.72
2022-12-03T18:37:45.045Z,43.42
2022-12-03T18:40:18.522Z,42.20
2022-12-03T18:42:46.569Z,49.95
2022-12-03T18:45:16.879Z,40.47
2022-12-03T18:47:44.968Z,34.33
2022-12-03T18:50:13.635Z,38.03
2022-12-03T18:52:41.547Z,36.88
2022-12-03T18:55:11.994Z,49.90
2022-12-03T18:57:39.822Z,44.30
2022-12-03T19:00:13.469Z,46.20
2022-12-03T19:03:02.412Z,39.42
2022-12-03T19:05:30.989Z,28.00
2022-12-03T19:07:58.950Z,42.00
2022-12-03T19:10:27.327Z,47.75
2022-12-03T19:12:55.263Z,38.47
2022-12-03T19:15:24.017Z,42.25
2022-12-03T19:17:53.289Z,38.85
2022-12-03T19:20:21.134Z,29.30
2022-12-03T19:22:49.064Z,37.75
2022-12-03T19:25:17.494Z,34.38
2022-12-03T19:27:50.117Z,32.50
2022-12-03T19:30:18.720Z,37.17
2022-12-03T19:32:48.571Z,39.58
2022-12-03T19:35:18.218Z,26.05
2022-12-03T19:37:47.938Z,41.63
2022-12-03T19:40:16.187Z,39.17
2022-12-03T19:42:44.262Z,35.65
2022-12-03T19:45:12.662Z,41.60
2022-12-03T19:47:40.519Z,26.95
2022-12-03T19:50:09.782Z,40.97
2022-12-03T19:52:39.101Z,35.15
2022-12-03T19:55:07.552Z,34.47
2022-12-03T19:57:35.477Z,37.70
2022-12-03T20:00:03.797Z,37.42
2022-12-03T20:02:40.245Z,38.63
2022-12-03T20:05:08.396Z,27.27
2022-12-03T20:07:36.263Z,35.38
2022-12-03T20:10:06.917Z,27.83
2022-12-03T20:12:34.803Z,36.03
2022-12-03T20:15:02.749Z,38.40
2022-12-03T20:17:30.714Z,35.53
2022-12-03T20:19:58.508Z,33.28
2022-12-03T20:22:26.425Z,39.92
2022-12-03T20:24:54.437Z,33.85
2022-12-03T20:27:23.696Z,31.83
2022-12-03T20:29:51.645Z,45.22
2022-12-03T20:32:19.731Z,35.38
2022-12-03T20:34:48.838Z,42.13
2022-12-03T20:37:16.731Z,43.78
2022-12-03T20:39:44.575Z,41.10
2022-12-03T20:42:12.710Z,38.83
2022-12-03T20:44:42.201Z,34.45
2022-12-03T20:47:10.211Z,39.47
2022-12-03T20:49:38.992Z,39.28
2022-12-03T20:52:06.974Z,49.00
2022-12-03T20:54:34.874Z,42.72
2022-12-03T20:57:02.952Z,42.28
2022-12-03T20:59:31.717Z,41.85
2022-12-03T21:02:01.109Z,49.03
2022-12-03T21:04:29.234Z,36.78
2022-12-03T21:06:57.738Z,46.00
2022-12-03T21:09:25.690Z,37.72
2022-12-03T21:11:53.748Z,38.10
2022-12-03T21:14:21.913Z,47.92
2022-12-03T21:19:39.910Z,38.72
2022-12-03T21:22:08.278Z,51.22
2022-12-03T21:24:36.422Z,51.85
2022-12-03T21:27:04.677Z,64.45
2022-12-03T21:29:32.573Z,53.83
2022-12-03T21:32:00.577Z,40.10
2022-12-03T21:34:35.636Z,50.38
2022-12-03T21:37:05.738Z,57.45
2022-12-03T21:39:33.602Z,51.47
2022-12-03T21:42:19.243Z,43.50
2022-12-03T21:44:49.506Z,42.00
2022-12-03T21:47:17.552Z,45.78
2022-12-03T21:49:45.710Z,53.28
2022-12-03T21:52:15.025Z,48.92
2022-12-03T21:54:42.906Z,68.05
2022-12-03T21:57:10.751Z,50.05
2022-12-03T21:59:38.618Z,59.70
2022-12-03T22:02:06.627Z,58.30
2022-12-03T22:04:34.559Z,57.40
2022-12-03T22:07:02.516Z,45.92
2022-12-03T22:09:33.341Z,64.60
2022-12-03T22:12:01.653Z,52.35
2022-12-03T22:14:29.621Z,50.33
2022-12-03T22:16:57.488Z,57.28
2022-12-03T22:19:26.169Z,52.25
2022-12-03T22:21:54.050Z,63.90
2022-12-03T22:24:23.623Z,58.60
2022-12-03T22:26:54.628Z,66.32
2022-12-03T22:29:22.674Z,50.95
2022-12-03T22:31:50.542Z,65.30
2022-12-03T22:34:18.431Z,57.88
2022-12-03T22:36:46.232Z,52.55
2022-12-03T22:39:14.130Z,56.90
2022-12-03T22:41:41.971Z,34.38
2022-12-03T22:44:11.426Z,63.90
2022-12-03T22:46:39.431Z,51.28
2022-12-03T22:49:07.831Z,62.15
2022-12-03T22:51:36.277Z,39.08
2022-12-03T22:54:04.382Z,50.55
2022-12-03T22:56:32.539Z,51.55
2022-12-03T22:59:00.458Z,58.72
2022-12-03T23:01:31.273Z,50.03
2022-12-03T23:03:59.433Z,34.58
2022-12-03T23:06:27.960Z,57.47
2022-12-03T23:08:56.180Z,50.97
2022-12-03T23:11:24.131Z,55.38
2022-12-03T23:13:52.380Z,51.13
2022-12-03T23:16:22.286Z,54.80
2022-12-03T23:18:51.621Z,57.58
2022-12-03T23:21:28.506Z,51.88
2022-12-03T23:23:57.896Z,35.13
2022-12-03T23:26:25.770Z,50.25
2022-12-03T23:28:53.644Z,58.63
2022-12-03T23:31:23.057Z,46.88
2022-12-03T23:33:52.953Z,56.55
2022-12-03T23:36:21.627Z,53.55
2022-12-03T23:38:49.790Z,53.00
2022-12-03T23:41:19.495Z,52.05
2022-12-03T23:43:47.714Z,61.05
2022-12-03T23:46:17.018Z,51.60
2022-12-03T23:48:45.369Z,56.00
2022-12-03T23:51:16.732Z,56.45
2022-12-03T23:53:44.767Z,48.95
2022-12-03T23:56:15.198Z,60.95
2022-12-03T23:58:43.302Z,56.35
